createdAt,value
2022-10-22T00:00:59.858Z,10.80
2022-10-22T00:03:27.720Z,10.78
2022-10-22T00:05:55.587Z,10.77
2022-10-22T00:08:23.653Z,10.76
2022-10-22T00:10:52.886Z,10.75
2022-10-22T00:13:21.293Z,10.74
2022-10-22T00:15:49.262Z,10.73
2022-10-22T00:18:18.384Z,10.74
2022-10-22T00:20:46.182Z,10.73
2022-10-22T00:23:14.046Z,10.71
2022-10-22T00:25:41.833Z,10.70
2022-10-22T00:28:13.827Z,10.70
2022-10-22T00:30:41.656Z,10.69
2022-10-22T00:33:09.531Z,10.69
2022-10-22T00:35:40.079Z,10.67
2022-10-22T00:38:07.994Z,10.65
2022-10-22T00:40:36.481Z,10.65
2022-10-22T00:43:04.370Z,10.64
2022-10-22T00:45:32.291Z,10.64
2022-10-22T00:48:05.730Z,10.65
2022-10-22T00:50:36.902Z,10.64
2022-10-22T00:53:10.653Z,10.63
2022-10-22T00:55:39.898Z,10.63
2022-10-22T00:58:07.842Z,10.63
2022-10-22T01:00:35.857Z,10.63
2022-10-22T01:03:03.954Z,10.61
2022-10-22T01:05:37.921Z,10.62
2022-10-22T01:10:54.353Z,10.64
2022-10-22T01:13:34.025Z,10.62
2022-10-22T01:16:09.943Z,10.64
2022-10-22T01:18:44.545Z,10.66
2022-10-22T01:21:22.391Z,10.66
2022-10-22T01:24:09.629Z,10.66
2022-10-22T01:26:49.794Z,10.70
2022-10-22T01:29:23.392Z,10.71
2022-10-22T01:31:57.724Z,10.70
2022-10-22T01:34:26.952Z,10.71
2022-10-22T01:36:56.856Z,10.71
2022-10-22T01:39:26.898Z,10.71
2022-10-22T01:41:55.927Z,10.73
2022-10-22T01:44:27.245Z,10.73
2022-10-22T01:47:03.624Z,10.74
2022-10-22T01:49:43.309Z,10.76
2022-10-22T01:52:22.613Z,10.78
2022-10-22T01:54:57.010Z,10.80
2022-10-22T01:57:34.088Z,10.81
2022-10-22T02:00:09.159Z,10.82
2022-10-22T02:02:45.119Z,10.84
2022-10-22T02:05:17.773Z,10.87
2022-10-22T02:07:49.954Z,10.89
2022-10-22T02:10:19.481Z,10.91
2022-10-22T02:12:51.575Z,10.95
2022-10-22T02:15:23.280Z,11.01
2022-10-22T02:17:52.859Z,11.03
2022-10-22T02:20:25.709Z,11.06
2022-10-22T02:22:53.847Z,11.06
2022-10-22T02:25:23.258Z,11.08
2022-10-22T02:28:01.617Z,11.09
2022-10-22T02:30:33.636Z,11.10
2022-10-22T02:33:07.900Z,11.11
2022-10-22T02:35:37.158Z,11.11
2022-10-22T02:38:05.510Z,11.13
2022-10-22T02:40:33.860Z,11.14
2022-10-22T02:43:01.740Z,11.14
2022-10-22T02:45:31.035Z,11.14
2022-10-22T02:47:58.865Z,11.11
2022-10-22T02:50:26.754Z,11.11
2022-10-22T02:52:55.017Z,11.10
2022-10-22T02:55:22.946Z,11.10
2022-10-22T02:57:50.906Z,11.09
2022-10-22T03:00:18.905Z,11.09
2022-10-22T03:02:48.464Z,11.10
2022-10-22T03:05:16.374Z,11.09
2022-10-22T03:07:44.239Z,11.10
2022-10-22T03:10:12.098Z,11.10
2022-10-22T03:12:39.877Z,11.08
2022-10-22T03:15:08.204Z,11.10
2022-10-22T03:17:36.932Z,11.09
2022-10-22T03:20:07.121Z,11.10
2022-10-22T03:22:36.489Z,11.09
2022-10-22T03:25:08.969Z,11.08
2022-10-22T03:27:40.608Z,11.10
2022-10-22T03:30:11.357Z,11.09
2022-10-22T03:32:39.257Z,11.09
2022-10-22T03:35:09.155Z,11.09
2022-10-22T03:37:38.112Z,11.09
2022-10-22T03:40:08.703Z,11.09
2022-10-22T03:42:36.591Z,11.07
2022-10-22T03:45:05.144Z,11.07
2022-10-22T03:47:32.937Z,11.08
2022-10-22T03:50:00.772Z,11.07
2022-10-22T03:52:30.181Z,11.06
2022-10-22T03:54:58.064Z,11.06
2022-10-22T03:57:25.932Z,11.04
2022-10-22T03:59:53.731Z,11.05
2022-10-22T04:02:21.710Z,11.03
2022-10-22T04:04:49.542Z,11.03
2022-10-22T04:07:17.385Z,11.03
2022-10-22T04:09:46.534Z,11.02
2022-10-22T04:12:14.313Z,11.02
2022-10-22T04:14:42.102Z,11.01
2022-10-22T04:17:09.925Z,11.01
2022-10-22T04:19:37.910Z,11.01
2022-10-22T04:22:05.717Z,11.00
2022-10-22T04:24:33.670Z,11.00
2022-10-22T04:27:02.847Z,11.01
2022-10-22T04:29:30.664Z,11.01
2022-10-22T04:31:58.402Z,11.02
2022-10-22T04:34:28.476Z,11.03
2022-10-22T04:36:56.541Z,11.06
2022-10-22T04:39:24.409Z,11.06
2022-10-22T04:41:52.239Z,11.04
2022-10-22T04:44:21.839Z,11.04
2022-10-22T04:46:49.772Z,11.03
2022-10-22T04:49:18.544Z,11.01
2022-10-22T04:51:46.316Z,11.01
2022-10-22T04:54:15.053Z,11.01
2022-10-22T04:56:43.052Z,11.01
2022-10-22T04:59:13.671Z,11.02
2022-10-22T05:01:44.218Z,11.03
2022-10-22T05:04:13.605Z,11.05
2022-10-22T05:06:41.794Z,11.07
2022-10-22T05:09:13.533Z,11.08
2022-10-22T05:11:45.433Z,11.06
2022-10-22T05:14:13.722Z,11.07
2022-10-22T05:16:42.921Z,11.08
2022-10-22T05:19:17.482Z,11.09
2022-10-22T05:21:45.378Z,11.11
2022-10-22T05:24:14.200Z,11.11
2022-10-22T05:26:41.975Z,11.09
2022-10-22T05:29:09.736Z,11.11
2022-10-22T05:31:38.877Z,11.11
2022-10-22T05:34:08.044Z,11.12
2022-10-22T05:36:35.859Z,11.13
2022-10-22T05:39:03.857Z,11.12
2022-10-22T05:41:31.679Z,11.09
2022-10-22T05:44:00.896Z,11.10
2022-10-22T05:46:30.748Z,11.09
2022-10-22T05:49:00.876Z,11.08
2022-10-22T05:51:33.367Z,11.07
2022-10-22T05:54:04.804Z,11.06
2022-10-22T05:56:32.988Z,11.06
2022-10-22T06:01:36.234Z,11.06
2022-10-22T06:04:06.453Z,11.06
2022-10-22T06:06:39.842Z,11.08
2022-10-22T06:09:14.657Z,11.09
2022-10-22T06:11:42.488Z,11.11
2022-10-22T06:14:11.646Z,11.10
2022-10-22T06:16:39.483Z,11.09
2022-10-22T06:19:07.913Z,11.10
2022-10-22T06:21:37.090Z,11.12
2022-10-22T06:24:05.261Z,11.12
2022-10-22T06:26:33.020Z,11.13
2022-10-22T06:29:00.986Z,11.14
2022-10-22T06:31:29.995Z,11.16
2022-10-22T06:33:58.145Z,11.17
2022-10-22T06:36:26.162Z,11.17
2022-10-22T06:38:56.542Z,11.17
2022-10-22T06:41:28.692Z,11.17
2022-10-22T06:43:58.298Z,11.18
2022-10-22T06:46:27.343Z,11.18
2022-10-22T06:48:57.585Z,11.20
2022-10-22T06:51:25.969Z,11.21
2022-10-22T06:53:56.322Z,11.24
2022-10-22T06:56:26.149Z,11.26
2022-10-22T06:58:55.759Z,11.27
2022-10-22T07:01:26.078Z,11.28
2022-10-22T07:03:54.701Z,11.29
2022-10-22T07:06:24.560Z,11.31
2022-10-22T07:08:53.021Z,11.32
2022-10-22T07:11:23.650Z,11.33
2022-10-22T07:13:52.675Z,11.34
2022-10-22T07:16:20.589Z,11.36
2022-10-22T07:18:49.292Z,11.39
2022-10-22T07:21:19.061Z,11.40
2022-10-22T07:23:47.596Z,11.44
2022-10-22T07:26:17.552Z,11.45
2022-10-22T07:28:46.860Z,11.46
2022-10-22T07:31:15.573Z,11.50
2022-10-22T07:33:43.744Z,11.51
2022-10-22T07:36:17.280Z,11.54
2022-10-22T07:38:46.038Z,11.57
2022-10-22T07:41:14.180Z,11.62
2022-10-22T07:43:42.070Z,11.66
2022-10-22T07:46:11.331Z,11.71
2022-10-22T07:48:39.162Z,11.76
2022-10-22T07:51:07.176Z,11.82
2022-10-22T07:53:35.155Z,11.87
2022-10-22T07:56:03.004Z,11.91
2022-10-22T07:58:31.182Z,11.97
2022-10-22T08:01:00.778Z,12.03
2022-10-22T08:03:30.360Z,12.08
2022-10-22T08:05:58.768Z,12.12
2022-10-22T08:08:29.800Z,12.18
2022-10-22T08:11:00.621Z,12.22
2022-10-22T08:13:30.486Z,12.27
2022-10-22T08:15:58.963Z,12.31
2022-10-22T08:18:26.868Z,12.36
2022-10-22T08:20:56.103Z,12.41
2022-10-22T08:23:26.073Z,12.44
2022-10-22T08:25:56.408Z,12.47
2022-10-22T08:28:24.221Z,12.51
2022-10-22T08:30:51.995Z,12.54
2022-10-22T08:33:19.794Z,12.58
2022-10-22T08:35:49.546Z,12.63
2022-10-22T08:38:19.476Z,12.64
2022-10-22T08:40:50.962Z,12.69
2022-10-22T08:43:36.870Z,12.75
2022-10-22T08:46:18.196Z,12.79
2022-10-22T08:48:49.268Z,12.83
2022-10-22T08:51:20.174Z,12.87
2022-10-22T08:54:07.040Z,12.91
2022-10-22T08:56:37.544Z,12.96
2022-10-22T08:59:12.488Z,13.01
2022-10-22T09:01:43.605Z,13.08
2022-10-22T09:04:25.422Z,13.18
2022-10-22T09:06:55.046Z,13.27
2022-10-22T09:09:28.993Z,13.49
2022-10-22T09:12:00.189Z,13.74
2022-10-22T09:14:29.883Z,14.01
2022-10-22T09:17:15.097Z,14.35
2022-10-22T09:19:54.307Z,14.60
2022-10-22T09:22:32.623Z,14.82
2022-10-22T09:25:15.079Z,14.98
2022-10-22T09:27:43.407Z,15.14
2022-10-22T09:30:16.935Z,15.33
2022-10-22T09:32:44.986Z,15.43
2022-10-22T09:35:14.245Z,15.43
2022-10-22T09:37:50.527Z,15.53
2022-10-22T09:40:20.180Z,15.64
2022-10-22T09:42:48.655Z,15.81
2022-10-22T09:45:20.891Z,16.01
2022-10-22T09:48:04.253Z,16.20
2022-10-22T09:50:42.276Z,16.34
2022-10-22T09:53:14.472Z,16.47
2022-10-22T09:55:44.553Z,16.57
2022-10-22T09:58:14.829Z,16.72
2022-10-22T10:00:46.478Z,16.86
2022-10-22T10:03:18.258Z,16.95
2022-10-22T10:05:49.306Z,17.06
2022-10-22T10:08:18.647Z,17.16
2022-10-22T10:10:52.059Z,17.25
2022-10-22T10:13:33.456Z,17.31
2022-10-22T10:16:10.909Z,17.36
2022-10-22T10:18:53.264Z,17.44
2022-10-22T10:21:31.871Z,17.51
2022-10-22T10:24:11.789Z,17.56
2022-10-22T10:26:48.860Z,17.69
2022-10-22T10:29:30.158Z,17.74
2022-10-22T10:32:13.814Z,17.77
2022-10-22T10:34:49.153Z,17.79
2022-10-22T10:37:23.168Z,17.85
2022-10-22T10:40:04.512Z,17.90
2022-10-22T10:42:37.711Z,17.96
2022-10-22T10:45:17.093Z,18.00
2022-10-22T10:48:06.937Z,18.07
2022-10-22T10:50:46.472Z,18.15
2022-10-22T10:53:22.759Z,18.22
2022-10-22T10:56:01.049Z,18.29
2022-10-22T10:58:40.311Z,18.35
2022-10-22T11:01:17.202Z,18.38
2022-10-22T11:04:04.590Z,18.44
2022-10-22T11:06:34.210Z,18.52
2022-10-22T11:09:06.862Z,18.60
2022-10-22T11:11:40.765Z,18.67
2022-10-22T11:14:18.468Z,18.70
2022-10-22T11:16:50.683Z,18.77
2022-10-22T11:19:46.050Z,18.81
2022-10-22T11:22:16.408Z,18.88
2022-10-22T11:37:57.278Z,19.32
2022-10-22T11:40:35.811Z,19.37
2022-10-22T11:43:06.159Z,19.38
2022-10-22T11:45:37.321Z,19.38
2022-10-22T11:48:18.917Z,19.46
2022-10-22T11:50:50.852Z,19.58
2022-10-22T11:53:30.632Z,19.74
2022-10-22T11:56:00.093Z,19.90
2022-10-22T11:58:34.297Z,20.04
2022-10-22T12:01:25.215Z,20.06
2022-10-22T12:03:54.865Z,20.16
2022-10-22T12:06:24.414Z,20.32
2022-10-22T12:09:00.497Z,20.53
2022-10-22T12:11:36.601Z,20.72
2022-10-22T12:14:26.588Z,20.85
2022-10-22T12:16:58.017Z,21.03
2022-10-22T12:19:30.331Z,21.21
2022-10-22T12:22:01.041Z,21.36
2022-10-22T12:24:35.312Z,21.53
2022-10-22T12:27:03.407Z,21.69
2022-10-22T12:29:33.856Z,21.83
2022-10-22T12:32:04.406Z,21.99
2022-10-22T12:34:32.137Z,22.18
2022-10-22T12:36:59.902Z,22.36
2022-10-22T12:39:28.959Z,22.49
2022-10-22T12:41:58.146Z,22.63
2022-10-22T12:44:25.961Z,22.72
2022-10-22T12:46:56.846Z,22.84
2022-10-22T12:49:32.985Z,22.85
2022-10-22T12:52:04.965Z,23.02
2022-10-22T12:54:34.418Z,23.17
2022-10-22T12:57:03.677Z,23.28
2022-10-22T12:59:35.808Z,23.24
2022-10-22T13:02:07.912Z,23.29
2022-10-22T13:04:39.095Z,23.41
2022-10-22T13:07:19.889Z,23.61
2022-10-22T13:09:59.096Z,23.72
2022-10-22T13:12:35.645Z,23.66
2022-10-22T13:15:22.512Z,23.75
2022-10-22T13:17:50.660Z,23.80
2022-10-22T13:20:22.358Z,23.81
2022-10-22T13:23:00.431Z,23.81
2022-10-22T13:25:30.632Z,23.86
2022-10-22T13:28:02.899Z,23.66
2022-10-22T13:30:33.153Z,23.52
2022-10-22T13:33:03.638Z,23.41
2022-10-22T13:35:33.631Z,23.33
2022-10-22T13:38:01.825Z,23.24
2022-10-22T13:40:29.666Z,23.13
2022-10-22T13:42:58.842Z,22.99
2022-10-22T13:45:26.609Z,22.86
2022-10-22T13:47:56.597Z,22.79
2022-10-22T13:50:24.336Z,22.74
2022-10-22T13:52:54.408Z,22.62
2022-10-22T13:55:26.018Z,22.49
2022-10-22T13:57:56.219Z,22.33
2022-10-22T14:00:26.385Z,22.12
2022-10-22T14:02:57.959Z,22.07
2022-10-22T14:05:26.001Z,21.95
2022-10-22T14:07:54.333Z,21.93
2022-10-22T14:10:24.143Z,21.95
2022-10-22T14:12:54.635Z,21.92
2022-10-22T14:15:24.832Z,21.88
2022-10-22T14:17:58.469Z,21.77
2022-10-22T14:20:28.954Z,21.66
2022-10-22T14:22:57.659Z,21.61
2022-10-22T14:25:26.842Z,21.54
2022-10-22T14:27:54.792Z,21.36
2022-10-22T14:30:25.034Z,21.20
2022-10-22T14:32:54.348Z,21.06
2022-10-22T14:35:23.675Z,20.92
2022-10-22T14:37:52.121Z,20.78
2022-10-22T14:40:21.643Z,20.67
2022-10-22T14:42:50.552Z,20.58
2022-10-22T14:45:21.548Z,20.48
2022-10-22T14:47:50.113Z,20.40
2022-10-22T14:50:20.566Z,20.37
2022-10-22T14:52:49.507Z,20.32
2022-10-22T14:55:19.774Z,20.30
2022-10-22T14:57:48.052Z,20.27
2022-10-22T15:00:18.907Z,20.24
2022-10-22T15:02:48.540Z,20.14
2022-10-22T15:05:17.729Z,20.06
2022-10-22T15:07:47.789Z,19.98
2022-10-22T15:10:16.026Z,19.93
2022-10-22T15:12:43.924Z,19.83
2022-10-22T15:15:12.131Z,19.77
2022-10-22T15:17:40.295Z,19.69
2022-10-22T15:20:08.852Z,19.65
2022-10-22T15:22:36.680Z,19.57
2022-10-22T15:25:09.058Z,19.50
2022-10-22T15:27:37.183Z,19.41
2022-10-22T15:30:06.913Z,19.33
2022-10-22T15:32:34.875Z,19.23
2022-10-22T15:35:03.243Z,19.16
2022-10-22T15:37:31.814Z,19.08
2022-10-22T15:40:00.488Z,19.00
2022-10-22T15:42:29.592Z,18.90
2022-10-22T15:44:59.300Z,18.77
2022-10-22T15:47:29.580Z,18.62
2022-10-22T15:49:57.620Z,18.51
2022-10-22T15:52:25.515Z,18.41
2022-10-22T15:54:53.418Z,18.34
2022-10-22T15:57:21.234Z,18.23
2022-10-22T15:59:51.900Z,18.12
2022-10-22T16:02:19.635Z,17.99
2022-10-22T16:04:47.917Z,17.88
2022-10-22T16:07:15.783Z,17.77
2022-10-22T16:09:43.648Z,17.68
2022-10-22T16:12:13.138Z,17.58
2022-10-22T16:14:43.206Z,17.48
2022-10-22T16:17:13.119Z,17.39
2022-10-22T16:19:41.020Z,17.28
2022-10-22T16:22:11.587Z,17.21
2022-10-22T16:24:40.934Z,17.12
2022-10-22T16:27:09.262Z,16.99
2022-10-22T16:29:38.976Z,16.90
2022-10-22T16:32:07.566Z,16.79
2022-10-22T16:34:36.783Z,16.70
2022-10-22T16:37:10.132Z,16.61
2022-10-22T16:39:38.370Z,16.54
2022-10-22T16:42:06.475Z,16.48
2022-10-22T16:44:34.354Z,16.41
2022-10-22T16:47:02.232Z,16.34
2022-10-22T16:49:30.130Z,16.27
2022-10-22T16:51:59.354Z,16.21
2022-10-22T16:54:27.425Z,16.17
2022-10-22T16:56:55.325Z,16.12
2022-10-22T16:59:23.278Z,16.08
2022-10-22T17:01:51.183Z,16.05
2022-10-22T17:04:19.201Z,16.01
2022-10-22T17:06:47.085Z,16.00
2022-10-22T17:09:17.095Z,15.98
2022-10-22T17:11:45.114Z,15.99
2022-10-22T17:14:14.609Z,15.95
2022-10-22T17:16:42.547Z,15.87
2022-10-22T17:19:14.077Z,15.76
2022-10-22T17:21:41.955Z,15.64
2022-10-22T17:24:11.289Z,15.52
2022-10-22T17:26:40.498Z,15.40
2022-10-22T17:29:08.681Z,15.28
2022-10-22T17:31:38.096Z,15.19
2022-10-22T17:34:07.856Z,15.13
2022-10-22T17:36:36.520Z,15.09
2022-10-22T17:39:07.362Z,15.06
2022-10-22T17:41:37.782Z,15.04
2022-10-22T17:44:10.018Z,15.02
2022-10-22T17:46:38.799Z,14.99
2022-10-22T17:49:13.301Z,14.97
2022-10-22T17:51:41.645Z,14.95
2022-10-22T17:54:10.205Z,14.93
2022-10-22T17:56:40.058Z,14.93
2022-10-22T17:59:10.708Z,14.92
2022-10-22T18:01:43.416Z,14.91
2022-10-22T18:04:14.504Z,14.89
2022-10-22T18:06:42.362Z,14.88
2022-10-22T18:09:17.231Z,14.86
2022-10-22T18:11:46.649Z,14.84
2022-10-22T18:14:16.302Z,14.82
2022-10-22T18:16:44.137Z,14.82
2022-10-22T18:19:15.283Z,14.80
2022-10-22T18:21:43.376Z,14.78
2022-10-22T18:24:11.720Z,14.75
2022-10-22T18:26:39.670Z,14.70
2022-10-22T18:29:07.696Z,14.68
2022-10-22T18:31:36.891Z,14.65
2022-10-22T18:34:04.765Z,14.62
2022-10-22T18:36:32.637Z,14.58
2022-10-22T18:39:01.827Z,14.55
2022-10-22T18:41:30.844Z,14.52
2022-10-22T18:44:00.423Z,14.49
2022-10-22T18:46:29.215Z,14.44
2022-10-22T18:48:59.709Z,14.40
2022-10-22T18:51:31.669Z,14.36
2022-10-22T18:54:11.301Z,14.32
2022-10-22T18:56:45.990Z,14.29
2022-10-22T18:59:16.747Z,14.27
2022-10-22T19:01:44.620Z,14.25
2022-10-22T19:04:14.883Z,14.20
2022-10-22T19:06:45.570Z,14.17
2022-10-22T19:09:14.741Z,14.16
2022-10-22T19:11:44.043Z,14.12
2022-10-22T19:14:12.020Z,14.11
2022-10-22T19:16:39.895Z,14.08
2022-10-22T19:19:08.682Z,14.03
2022-10-22T19:21:38.582Z,14.00
2022-10-22T19:24:07.167Z,13.98
2022-10-22T19:26:35.660Z,13.94
2022-10-22T19:29:03.700Z,13.92
2022-10-22T19:31:32.214Z,13.87
2022-10-22T19:34:01.416Z,13.82
2022-10-22T19:36:31.081Z,13.77
2022-10-22T19:39:00.922Z,13.70
2022-10-22T19:41:30.379Z,13.65
2022-10-22T19:44:00.964Z,13.63
2022-10-22T19:46:30.230Z,13.61
2022-10-22T19:48:58.120Z,13.60
2022-10-22T19:51:29.716Z,13.59
2022-10-22T19:54:00.802Z,13.58
2022-10-22T19:56:29.323Z,13.57
2022-10-22T19:58:57.789Z,13.54
2022-10-22T20:01:26.298Z,13.54
2022-10-22T20:03:54.676Z,13.54
2022-10-22T20:06:22.933Z,13.54
2022-10-22T20:08:53.889Z,13.53
2022-10-22T20:11:27.785Z,13.53
2022-10-22T20:13:57.227Z,13.52
2022-10-22T20:16:28.480Z,13.51
2022-10-22T20:18:59.927Z,13.48
2022-10-22T20:21:28.485Z,13.45
2022-10-22T20:23:57.482Z,13.44
2022-10-22T20:26:28.905Z,13.42
2022-10-22T20:28:57.465Z,13.37
2022-10-22T20:31:28.602Z,13.34
2022-10-22T20:33:57.766Z,13.32
2022-10-22T20:36:27.009Z,13.28
2022-10-22T20:39:00.303Z,13.26
2022-10-22T20:41:29.987Z,13.25
2022-10-22T20:43:57.842Z,13.24
2022-10-22T20:46:29.152Z,13.22
2022-10-22T20:49:00.328Z,13.18
2022-10-22T20:51:28.263Z,13.16
2022-10-22T20:53:56.298Z,13.08
2022-10-22T20:56:24.779Z,13.04
2022-10-22T20:59:04.135Z,12.99
2022-10-22T21:01:34.566Z,12.94
2022-10-22T21:04:02.603Z,12.88
2022-10-22T21:06:30.830Z,12.84
2022-10-22T21:08:58.790Z,12.82
2022-10-22T21:11:26.792Z,12.78
2022-10-22T21:13:55.972Z,12.76
2022-10-22T21:16:23.971Z,12.70
2022-10-22T21:18:52.046Z,12.69
2022-10-22T21:21:20.113Z,12.67
2022-10-22T21:23:50.185Z,12.64
2022-10-22T21:26:18.272Z,12.62
2022-10-22T21:28:46.348Z,12.56
2022-10-22T21:31:21.716Z,12.51
2022-10-22T21:33:50.894Z,12.46
2022-10-22T21:36:22.672Z,12.41
2022-10-22T21:38:51.508Z,12.35
2022-10-22T21:41:20.908Z,12.30
2022-10-22T21:43:49.033Z,12.25
2022-10-22T21:46:20.198Z,12.18
2022-10-22T21:48:48.707Z,12.12
2022-10-22T21:51:18.690Z,12.05
2022-10-22T21:53:47.906Z,12.00
2022-10-22T21:56:17.431Z,11.96
2022-10-22T21:58:45.564Z,11.91
2022-10-22T22:01:14.643Z,11.88
2022-10-22T22:03:45.346Z,11.84
2022-10-22T22:06:13.786Z,11.81
2022-10-22T22:08:41.810Z,11.79
2022-10-22T22:11:12.476Z,11.77
2022-10-22T22:13:41.196Z,11.76
2022-10-22T22:16:10.932Z,11.72
2022-10-22T22:18:39.556Z,11.73
2022-10-22T22:21:12.625Z,11.71
2022-10-22T22:23:43.116Z,11.68
2022-10-22T22:26:11.731Z,11.66
2022-10-22T22:28:39.867Z,11.64
2022-10-22T22:31:14.532Z,11.63
2022-10-22T22:33:42.474Z,11.60
2022-10-22T22:36:12.292Z,11.56
2022-10-22T22:38:40.369Z,11.51
2022-10-22T22:41:09.704Z,11.46
2022-10-22T22:43:38.708Z,11.44
2022-10-22T22:46:08.686Z,11.37
2022-10-22T22:48:36.581Z,11.34
2022-10-22T22:51:05.091Z,11.32
2022-10-22T22:53:34.737Z,11.29
2022-10-22T22:56:08.035Z,11.27
2022-10-22T22:58:36.492Z,11.25
2022-10-22T23:01:16.721Z,11.21
2022-10-22T23:03:46.948Z,11.15
2022-10-22T23:06:16.179Z,11.11
2022-10-22T23:08:45.879Z,11.08
2022-10-22T23:11:15.224Z,11.04
2022-10-22T23:13:44.090Z,11.00
2022-10-22T23:16:16.311Z,10.97
2022-10-22T23:18:44.827Z,10.94
2022-10-22T23:21:15.777Z,10.92
2022-10-22T23:23:46.311Z,10.88
2022-10-22T23:26:15.717Z,10.84
2022-10-22T23:28:43.552Z,10.82
2022-10-22T23:31:13.827Z,10.80
2022-10-22T23:33:41.956Z,10.78
2022-10-22T23:36:11.144Z,10.78
2022-10-22T23:38:40.796Z,10.75
2022-10-22T23:41:10.459Z,10.73
2022-10-22T23:43:39.382Z,10.72
2022-10-22T23:46:09.092Z,10.70
2022-10-22T23:48:37.684Z,10.69
2022-10-22T23:51:06.513Z,10.68
2022-10-22T23:53:34.656Z,10.66
2022-10-22T23:56:05.256Z,10.64
2022-10-22T23:58:35.135Z,10.60
